sensor_id;sensor_type;location;lat;lon;timestamp;P1;durP1;ratioP1;P2;durP2;ratioP2
33403;SDS011;19751;40.274;18.268;2022-12-08T00:00:43;20.98;;;9.95;;
33403;SDS011;19751;40.274;18.268;2022-12-08T00:03:09;18.77;;;10.27;;
33403;SDS011;19751;40.274;18.268;2022-12-08T00:05:35;15.18;;;9.73;;
33403;SDS011;19751;40.274;18.268;2022-12-08T00:08:19;19.52;;;10.57;;
33403;SDS011;19751;40.274;18.268;2022-12-08T00:11:02;17.83;;;10.65;;
33403;SDS011;19751;40.274;18.268;2022-12-08T00:13:28;17.77;;;10.30;;
33403;SDS011;19751;40.274;18.268;2022-12-08T00:15:58;18.98;;;10.02;;
33403;SDS011;19751;40.274;18.268;2022-12-08T00:18:27;14.93;;;9.23;;
33403;SDS011;19751;40.274;18.268;2022-12-08T00:20:56;18.08;;;9.90;;
33403;SDS011;19751;40.274;18.268;2022-12-08T00:23:22;16.98;;;9.13;;
33403;SDS011;19751;40.274;18.268;2022-12-08T00:25:48;18.02;;;10.55;;
33403;SDS011;19751;40.274;18.268;2022-12-08T00:28:14;19.15;;;10.30;;
33403;SDS011;19751;40.274;18.268;2022-12-08T00:30:40;21.92;;;10.80;;
33403;SDS011;19751;40.274;18.268;2022-12-08T00:33:06;21.98;;;11.55;;
33403;SDS011;19751;40.274;18.268;2022-12-08T00:35:32;19.92;;;10.35;;
33403;SDS011;19751;40.274;18.268;2022-12-08T00:37:57;23.48;;;11.13;;
33403;SDS011;19751;40.274;18.268;2022-12-08T00:40:23;17.42;;;10.52;;
33403;SDS011;19751;40.274;18.268;2022-12-08T00:42:48;25.70;;;10.93;;
33403;SDS011;19751;40.274;18.268;2022-12-08T00:45:14;24.13;;;9.77;;
33403;SDS011;19751;40.274;18.268;2022-12-08T00:47:40;21.95;;;10.05;;
33403;SDS011;19751;40.274;18.268;2022-12-08T00:50:06;21.25;;;10.27;;
33403;SDS011;19751;40.274;18.268;2022-12-08T00:52:32;18.98;;;8.98;;
33403;SDS011;19751;40.274;18.268;2022-12-08T00:54:57;19.95;;;8.63;;
33403;SDS011;19751;40.274;18.268;2022-12-08T00:57:23;24.17;;;9.10;;
33403;SDS011;19751;40.274;18.268;2022-12-08T00:59:48;20.17;;;8.27;;
33403;SDS011;19751;40.274;18.268;2022-12-08T01:02:14;21.83;;;9.40;;
33403;SDS011;19751;40.274;18.268;2022-12-08T01:04:39;18.73;;;8.40;;
33403;SDS011;19751;40.274;18.268;2022-12-08T01:07:05;16.02;;;8.45;;
33403;SDS011;19751;40.274;18.268;2022-12-08T01:09:31;15.82;;;6.93;;
33403;SDS011;19751;40.274;18.268;2022-12-08T01:11:57;20.30;;;7.78;;
33403;SDS011;19751;40.274;18.268;2022-12-08T01:14:22;12.85;;;7.00;;
33403;SDS011;19751;40.274;18.268;2022-12-08T01:16:48;10.90;;;6.70;;
33403;SDS011;19751;40.274;18.268;2022-12-08T01:19:14;14.60;;;6.35;;
33403;SDS011;19751;40.274;18.268;2022-12-08T01:21:41;15.43;;;6.40;;
33403;SDS011;19751;40.274;18.268;2022-12-08T01:24:15;17.65;;;5.38;;
33403;SDS011;19751;40.274;18.268;2022-12-08T01:26:43;18.33;;;5.60;;
33403;SDS011;19751;40.274;18.268;2022-12-08T01:29:09;8.50;;;5.03;;
33403;SDS011;19751;40.274;18.268;2022-12-08T01:31:35;17.67;;;6.00;;
33403;SDS011;19751;40.274;18.268;2022-12-08T01:34:01;12.68;;;5.63;;
33403;SDS011;19751;40.274;18.268;2022-12-08T01:36:28;18.27;;;7.65;;
33403;SDS011;19751;40.274;18.268;2022-12-08T01:39:01;11.07;;;4.55;;
33403;SDS011;19751;40.274;18.268;2022-12-08T01:41:29;17.52;;;5.10;;
33403;SDS011;19751;40.274;18.268;2022-12-08T01:46:41;9.75;;;5.15;;
33403;SDS011;19751;40.274;18.268;2022-12-08T01:51:44;20.30;;;4.82;;
33403;SDS011;19751;40.274;18.268;2022-12-08T01:54:33;18.20;;;5.07;;
33403;SDS011;19751;40.274;18.268;2022-12-08T01:57:50;18.02;;;4.88;;
33403;SDS011;19751;40.274;18.268;2022-12-08T02:00:04;12.70;;;3.72;;
33403;SDS011;19751;40.274;18.268;2022-12-08T02:02:41;9.77;;;3.60;;
33403;SDS011;19751;40.274;18.268;2022-12-08T02:05:19;11.52;;;3.85;;
33403;SDS011;19751;40.274;18.268;2022-12-08T02:07:48;13.05;;;5.20;;
33403;SDS011;19751;40.274;18.268;2022-12-08T02:10:16;18.92;;;4.82;;
33403;SDS011;19751;40.274;18.268;2022-12-08T02:12:44;12.50;;;4.13;;
33403;SDS011;19751;40.274;18.268;2022-12-08T02:15:11;11.75;;;4.70;;
33403;SDS011;19751;40.274;18.268;2022-12-08T02:23:23;12.10;;;3.33;;
33403;SDS011;19751;40.274;18.268;2022-12-08T02:34:25;19.48;;;4.47;;
33403;SDS011;19751;40.274;18.268;2022-12-08T02:37:03;15.95;;;4.30;;
33403;SDS011;19751;40.274;18.268;2022-12-08T02:44:51;15.70;;;5.57;;
33403;SDS011;19751;40.274;18.268;2022-12-08T02:47:22;13.77;;;3.90;;
33403;SDS011;19751;40.274;18.268;2022-12-08T02:49:50;23.85;;;4.07;;
33403;SDS011;19751;40.274;18.268;2022-12-08T02:54:42;23.75;;;3.25;;
33403;SDS011;19751;40.274;18.268;2022-12-08T02:57:28;22.83;;;3.70;;
33403;SDS011;19751;40.274;18.268;2022-12-08T03:00:17;21.48;;;3.38;;
33403;SDS011;19751;40.274;18.268;2022-12-08T03:02:53;24.73;;;4.05;;
33403;SDS011;19751;40.274;18.268;2022-12-08T03:05:23;22.17;;;3.58;;
33403;SDS011;19751;40.274;18.268;2022-12-08T03:08:01;22.10;;;3.40;;
33403;SDS011;19751;40.274;18.268;2022-12-08T03:10:34;23.13;;;4.47;;
33403;SDS011;19751;40.274;18.268;2022-12-08T03:13:06;21.73;;;4.72;;
33403;SDS011;19751;40.274;18.268;2022-12-08T03:15:37;20.75;;;4.70;;
33403;SDS011;19751;40.274;18.268;2022-12-08T03:18:04;19.70;;;4.03;;
33403;SDS011;19751;40.274;18.268;2022-12-08T03:20:32;26.92;;;6.05;;
33403;SDS011;19751;40.274;18.268;2022-12-08T03:22:59;15.30;;;3.60;;
33403;SDS011;19751;40.274;18.268;2022-12-08T03:25:30;15.60;;;3.40;;
33403;SDS011;19751;40.274;18.268;2022-12-08T03:28:00;26.02;;;4.95;;
33403;SDS011;19751;40.274;18.268;2022-12-08T03:30:26;12.13;;;3.00;;
33403;SDS011;19751;40.274;18.268;2022-12-08T03:32:59;19.20;;;4.50;;
33403;SDS011;19751;40.274;18.268;2022-12-08T03:35:29;14.88;;;2.55;;
33403;SDS011;19751;40.274;18.268;2022-12-08T03:38:00;19.45;;;3.40;;
33403;SDS011;19751;40.274;18.268;2022-12-08T03:40:31;20.85;;;3.08;;
33403;SDS011;19751;40.274;18.268;2022-12-08T03:42:57;25.27;;;4.75;;
33403;SDS011;19751;40.274;18.268;2022-12-08T03:45:23;14.48;;;3.10;;
33403;SDS011;19751;40.274;18.268;2022-12-08T03:47:49;20.73;;;3.47;;
33403;SDS011;19751;40.274;18.268;2022-12-08T03:50:15;18.75;;;3.33;;
33403;SDS011;19751;40.274;18.268;2022-12-08T03:52:40;18.92;;;3.85;;
33403;SDS011;19751;40.274;18.268;2022-12-08T03:55:06;16.33;;;2.63;;
33403;SDS011;19751;40.274;18.268;2022-12-08T03:57:32;17.88;;;3.70;;
33403;SDS011;19751;40.274;18.268;2022-12-08T03:59:57;15.13;;;3.03;;
33403;SDS011;19751;40.274;18.268;2022-12-08T04:02:23;22.23;;;5.22;;
33403;SDS011;19751;40.274;18.268;2022-12-08T04:04:48;17.00;;;3.72;;
33403;SDS011;19751;40.274;18.268;2022-12-08T04:07:14;13.05;;;2.70;;
33403;SDS011;19751;40.274;18.268;2022-12-08T04:09:40;15.93;;;3.95;;
33403;SDS011;19751;40.274;18.268;2022-12-08T04:12:06;12.73;;;3.25;;
33403;SDS011;19751;40.274;18.268;2022-12-08T04:14:32;23.60;;;3.88;;
33403;SDS011;19751;40.274;18.268;2022-12-08T04:16:58;16.77;;;4.63;;
33403;SDS011;19751;40.274;18.268;2022-12-08T04:19:23;18.13;;;3.45;;
33403;SDS011;19751;40.274;18.268;2022-12-08T04:21:49;16.63;;;2.85;;
33403;SDS011;19751;40.274;18.268;2022-12-08T04:24:14;12.93;;;3.95;;
33403;SDS011;19751;40.274;18.268;2022-12-08T04:26:40;14.65;;;2.97;;
33403;SDS011;19751;40.274;18.268;2022-12-08T04:29:05;14.65;;;3.13;;
33403;SDS011;19751;40.274;18.268;2022-12-08T04:31:31;12.65;;;3.22;;
33403;SDS011;19751;40.274;18.268;2022-12-08T04:33:56;15.77;;;3.30;;
33403;SDS011;19751;40.274;18.268;2022-12-08T04:36:22;10.18;;;1.80;;
33403;SDS011;19751;40.274;18.268;2022-12-08T04:38:47;22.40;;;3.80;;
33403;SDS011;19751;40.274;18.268;2022-12-08T04:41:13;12.13;;;3.13;;
33403;SDS011;19751;40.274;18.268;2022-12-08T04:43:38;10.98;;;2.40;;
33403;SDS011;19751;40.274;18.268;2022-12-08T04:46:05;12.45;;;2.50;;
33403;SDS011;19751;40.274;18.268;2022-12-08T04:48:32;18.73;;;2.38;;
33403;SDS011;19751;40.274;18.268;2022-12-08T04:50:58;14.60;;;2.25;;
33403;SDS011;19751;40.274;18.268;2022-12-08T04:53:23;11.02;;;3.00;;
33403;SDS011;19751;40.274;18.268;2022-12-08T04:55:50;11.02;;;2.70;;
33403;SDS011;19751;40.274;18.268;2022-12-08T04:58:17;10.68;;;2.90;;
33403;SDS011;19751;40.274;18.268;2022-12-08T05:00:44;11.50;;;2.50;;
33403;SDS011;19751;40.274;18.268;2022-12-08T05:03:10;11.00;;;2.72;;
33403;SDS011;19751;40.274;18.268;2022-12-08T05:05:36;16.90;;;2.95;;
33403;SDS011;19751;40.274;18.268;2022-12-08T05:08:03;9.65;;;2.60;;
33403;SDS011;19751;40.274;18.268;2022-12-08T05:10:29;12.18;;;3.13;;
33403;SDS011;19751;40.274;18.268;2022-12-08T05:12:54;7.80;;;2.28;;
33403;SDS011;19751;40.274;18.268;2022-12-08T05:15:21;17.67;;;4.43;;
33403;SDS011;19751;40.274;18.268;2022-12-08T05:17:47;14.10;;;3.88;;
33403;SDS011;19751;40.274;18.268;2022-12-08T05:20:12;6.97;;;3.05;;
33403;SDS011;19751;40.274;18.268;2022-12-08T05:22:38;13.68;;;3.00;;
33403;SDS011;19751;40.274;18.268;2022-12-08T05:25:03;16.15;;;3.78;;
33403;SDS011;19751;40.274;18.268;2022-12-08T05:27:29;14.48;;;3.10;;
33403;SDS011;19751;40.274;18.268;2022-12-08T05:29:55;16.10;;;3.17;;
33403;SDS011;19751;40.274;18.268;2022-12-08T05:32:20;13.27;;;3.00;;
33403;SDS011;19751;40.274;18.268;2022-12-08T05:34:46;8.45;;;2.63;;
33403;SDS011;19751;40.274;18.268;2022-12-08T05:37:11;21.67;;;4.28;;
33403;SDS011;19751;40.274;18.268;2022-12-08T05:39:36;14.00;;;3.97;;
33403;SDS011;19751;40.274;18.268;2022-12-08T05:42:02;16.25;;;3.78;;
33403;SDS011;19751;40.274;18.268;2022-12-08T05:44:28;12.93;;;3.33;;
33403;SDS011;19751;40.274;18.268;2022-12-08T05:46:53;14.55;;;4.05;;
33403;SDS011;19751;40.274;18.268;2022-12-08T05:49:19;17.65;;;3.90;;
33403;SDS011;19751;40.274;18.268;2022-12-08T05:51:44;15.50;;;3.33;;
33403;SDS011;19751;40.274;18.268;2022-12-08T05:54:10;12.23;;;3.80;;
33403;SDS011;19751;40.274;18.268;2022-12-08T05:56:35;21.13;;;4.90;;
33403;SDS011;19751;40.274;18.268;2022-12-08T05:59:03;18.05;;;4.88;;
33403;SDS011;19751;40.274;18.268;2022-12-08T06:01:30;16.42;;;6.32;;
33403;SDS011;19751;40.274;18.268;2022-12-08T06:03:57;17.05;;;5.25;;
33403;SDS011;19751;40.274;18.268;2022-12-08T06:06:23;13.40;;;4.70;;
33403;SDS011;19751;40.274;18.268;2022-12-08T06:08:49;19.33;;;5.18;;
33403;SDS011;19751;40.274;18.268;2022-12-08T06:11:22;34.72;;;9.55;;
33403;SDS011;19751;40.274;18.268;2022-12-08T06:13:49;15.57;;;7.28;;
33403;SDS011;19751;40.274;18.268;2022-12-08T06:16:15;24.17;;;10.50;;
33403;SDS011;19751;40.274;18.268;2022-12-08T06:18:41;17.80;;;6.20;;
33403;SDS011;19751;40.274;18.268;2022-12-08T06:21:07;14.02;;;4.25;;
33403;SDS011;19751;40.274;18.268;2022-12-08T06:23:34;21.98;;;4.30;;
33403;SDS011;19751;40.274;18.268;2022-12-08T06:26:04;21.08;;;5.15;;
33403;SDS011;19751;40.274;18.268;2022-12-08T06:28:33;22.60;;;6.40;;
33403;SDS011;19751;40.274;18.268;2022-12-08T06:30:59;21.83;;;6.15;;
33403;SDS011;19751;40.274;18.268;2022-12-08T06:33:33;22.38;;;4.65;;
33403;SDS011;19751;40.274;18.268;2022-12-08T06:35:59;19.17;;;5.05;;
33403;SDS011;19751;40.274;18.268;2022-12-08T06:38:24;15.63;;;5.28;;
33403;SDS011;19751;40.274;18.268;2022-12-08T06:40:53;24.52;;;4.10;;
33403;SDS011;19751;40.274;18.268;2022-12-08T06:43:19;30.40;;;5.88;;
33403;SDS011;19751;40.274;18.268;2022-12-08T06:45:45;20.52;;;6.50;;
33403;SDS011;19751;40.274;18.268;2022-12-08T06:48:11;25.55;;;7.00;;
33403;SDS011;19751;40.274;18.268;2022-12-08T06:50:37;18.13;;;6.93;;
33403;SDS011;19751;40.274;18.268;2022-12-08T06:53:02;22.08;;;6.78;;
33403;SDS011;19751;40.274;18.268;2022-12-08T06:55:28;22.48;;;5.03;;
33403;SDS011;19751;40.274;18.268;2022-12-08T06:57:53;16.90;;;4.65;;
33403;SDS011;19751;40.274;18.268;2022-12-08T07:00:19;18.33;;;5.63;;
33403;SDS011;19751;40.274;18.268;2022-12-08T07:02:45;14.15;;;5.00;;
33403;SDS011;19751;40.274;18.268;2022-12-08T07:05:10;18.00;;;4.80;;
33403;SDS011;19751;40.274;18.268;2022-12-08T07:07:36;22.25;;;6.45;;
33403;SDS011;19751;40.274;18.268;2022-12-08T07:10:02;17.05;;;6.38;;
33403;SDS011;19751;40.274;18.268;2022-12-08T07:12:27;20.58;;;5.57;;
33403;SDS011;19751;40.274;18.268;2022-12-08T07:14:53;20.58;;;6.97;;
33403;SDS011;19751;40.274;18.268;2022-12-08T07:17:19;16.60;;;6.13;;
33403;SDS011;19751;40.274;18.268;2022-12-08T07:19:44;26.65;;;8.75;;
33403;SDS011;19751;40.274;18.268;2022-12-08T07:22:09;19.83;;;6.15;;
33403;SDS011;19751;40.274;18.268;2022-12-08T07:24:35;19.02;;;7.00;;
33403;SDS011;19751;40.274;18.268;2022-12-08T07:27:01;21.10;;;6.25;;
33403;SDS011;19751;40.274;18.268;2022-12-08T07:29:26;37.65;;;9.80;;
33403;SDS011;19751;40.274;18.268;2022-12-08T07:31:52;21.83;;;7.07;;
33403;SDS011;19751;40.274;18.268;2022-12-08T07:34:17;25.35;;;7.75;;
33403;SDS011;19751;40.274;18.268;2022-12-08T07:36:43;28.58;;;6.15;;
33403;SDS011;19751;40.274;18.268;2022-12-08T07:39:08;23.52;;;5.78;;
33403;SDS011;19751;40.274;18.268;2022-12-08T07:41:34;18.10;;;6.68;;
33403;SDS011;19751;40.274;18.268;2022-12-08T07:43:59;25.50;;;7.30;;
33403;SDS011;19751;40.274;18.268;2022-12-08T07:46:25;22.65;;;5.97;;
33403;SDS011;19751;40.274;18.268;2022-12-08T07:48:51;28.27;;;6.43;;
33403;SDS011;19751;40.274;18.268;2022-12-08T07:51:18;35.33;;;7.25;;
33403;SDS011;19751;40.274;18.268;2022-12-08T07:53:44;31.52;;;7.72;;
33403;SDS011;19751;40.274;18.268;2022-12-08T07:56:11;22.38;;;6.53;;
33403;SDS011;19751;40.274;18.268;2022-12-08T07:58:38;24.85;;;7.53;;
33403;SDS011;19751;40.274;18.268;2022-12-08T08:01:04;21.95;;;6.50;;
33403;SDS011;19751;40.274;18.268;2022-12-08T08:03:30;26.48;;;7.03;;
33403;SDS011;19751;40.274;18.268;2022-12-08T08:06:03;27.42;;;6.68;;
33403;SDS011;19751;40.274;18.268;2022-12-08T08:08:29;23.13;;;5.80;;
33403;SDS011;19751;40.274;18.268;2022-12-08T08:10:55;25.38;;;6.88;;
33403;SDS011;19751;40.274;18.268;2022-12-08T08:13:21;30.48;;;9.75;;
33403;SDS011;19751;40.274;18.268;2022-12-08T08:15:46;37.83;;;10.18;;
33403;SDS011;19751;40.274;18.268;2022-12-08T08:18:12;30.98;;;8.32;;
33403;SDS011;19751;40.274;18.268;2022-12-08T08:20:37;29.17;;;8.32;;
33403;SDS011;19751;40.274;18.268;2022-12-08T08:23:03;34.55;;;7.05;;
33403;SDS011;19751;40.274;18.268;2022-12-08T08:25:29;38.75;;;9.80;;
33403;SDS011;19751;40.274;18.268;2022-12-08T08:27:54;35.25;;;8.98;;
33403;SDS011;19751;40.274;18.268;2022-12-08T08:30:20;38.50;;;7.70;;
33403;SDS011;19751;40.274;18.268;2022-12-08T08:32:46;30.63;;;7.10;;
33403;SDS011;19751;40.274;18.268;2022-12-08T08:35:12;39.53;;;6.80;;
33403;SDS011;19751;40.274;18.268;2022-12-08T08:37:37;33.60;;;6.40;;
33403;SDS011;19751;40.274;18.268;2022-12-08T08:40:03;50.67;;;9.43;;
33403;SDS011;19751;40.274;18.268;2022-12-08T08:42:29;35.78;;;7.35;;
33403;SDS011;19751;40.274;18.268;2022-12-08T08:44:54;42.58;;;8.13;;
33403;SDS011;19751;40.274;18.268;2022-12-08T08:47:20;35.42;;;6.00;;
33403;SDS011;19751;40.274;18.268;2022-12-08T08:49:45;39.65;;;7.95;;
33403;SDS011;19751;40.274;18.268;2022-12-08T08:52:11;32.85;;;7.75;;
33403;SDS011;19751;40.274;18.268;2022-12-08T08:54:36;38.20;;;6.63;;
33403;SDS011;19751;40.274;18.268;2022-12-08T08:57:02;34.95;;;9.70;;
33403;SDS011;19751;40.274;18.268;2022-12-08T08:59:28;40.17;;;7.97;;
33403;SDS011;19751;40.274;18.268;2022-12-08T09:01:54;25.17;;;8.00;;
33403;SDS011;19751;40.274;18.268;2022-12-08T09:04:21;50.50;;;8.52;;
33403;SDS011;19751;40.274;18.268;2022-12-08T09:06:47;31.70;;;7.50;;
33403;SDS011;19751;40.274;18.268;2022-12-08T09:09:13;37.08;;;8.10;;
33403;SDS011;19751;40.274;18.268;2022-12-08T09:11:40;37.20;;;7.03;;
33403;SDS011;19751;40.274;18.268;2022-12-08T09:14:06;38.45;;;6.47;;
33403;SDS011;19751;40.274;18.268;2022-12-08T09:16:34;32.15;;;7.43;;
33403;SDS011;19751;40.274;18.268;2022-12-08T09:19:00;30.92;;;7.30;;
33403;SDS011;19751;40.274;18.268;2022-12-08T09:21:26;45.08;;;8.88;;
33403;SDS011;19751;40.274;18.268;2022-12-08T09:23:52;33.50;;;6.90;;
33403;SDS011;19751;40.274;18.268;2022-12-08T09:26:20;28.17;;;5.60;;
33403;SDS011;19751;40.274;18.268;2022-12-08T09:28:50;42.30;;;6.53;;
33403;SDS011;19751;40.274;18.268;2022-12-08T09:31:17;29.75;;;6.40;;
33403;SDS011;19751;40.274;18.268;2022-12-08T09:33:44;32.70;;;5.63;;
33403;SDS011;19751;40.274;18.268;2022-12-08T09:36:10;34.88;;;5.50;;
33403;SDS011;19751;40.274;18.268;2022-12-08T09:38:36;28.73;;;5.75;;
33403;SDS011;19751;40.274;18.268;2022-12-08T09:41:03;22.70;;;4.90;;
33403;SDS011;19751;40.274;18.268;2022-12-08T09:46:30;37.70;;;7.93;;
33403;SDS011;19751;40.274;18.268;2022-12-08T09:48:58;35.10;;;7.30;;
33403;SDS011;19751;40.274;18.268;2022-12-08T09:51:26;33.25;;;8.43;;
33403;SDS011;19751;40.274;18.268;2022-12-08T09:56:33;29.17;;;6.60;;
33403;SDS011;19751;40.274;18.268;2022-12-08T10:01:33;31.50;;;6.82;;
33403;SDS011;19751;40.274;18.268;2022-12-08T10:04:02;36.25;;;6.80;;
33403;SDS011;19751;40.274;18.268;2022-12-08T10:06:40;34.78;;;5.55;;
33403;SDS011;19751;40.274;18.268;2022-12-08T10:09:36;31.75;;;5.82;;
33403;SDS011;19751;40.274;18.268;2022-12-08T10:14:58;30.63;;;6.18;;
33403;SDS011;19751;40.274;18.268;2022-12-08T10:17:35;30.17;;;6.90;;
33403;SDS011;19751;40.274;18.268;2022-12-08T10:22:39;31.35;;;5.03;;
33403;SDS011;19751;40.274;18.268;2022-12-08T10:27:42;30.67;;;5.07;;
33403;SDS011;19751;40.274;18.268;2022-12-08T10:30:15;28.30;;;7.75;;
33403;SDS011;19751;40.274;18.268;2022-12-08T10:32:43;26.92;;;6.80;;
33403;SDS011;19751;40.274;18.268;2022-12-08T10:35:12;29.98;;;5.43;;
33403;SDS011;19751;40.274;18.268;2022-12-08T10:37:40;31.33;;;5.65;;
33403;SDS011;19751;40.274;18.268;2022-12-08T10:40:18;31.80;;;4.47;;
33403;SDS011;19751;40.274;18.268;2022-12-08T10:42:47;32.15;;;4.70;;
33403;SDS011;19751;40.274;18.268;2022-12-08T10:45:22;21.40;;;4.13;;
33403;SDS011;19751;40.274;18.268;2022-12-08T10:48:00;27.05;;;4.93;;
33403;SDS011;19751;40.274;18.268;2022-12-08T10:50:35;24.02;;;5.90;;
33403;SDS011;19751;40.274;18.268;2022-12-08T10:55:44;31.35;;;5.82;;
33403;SDS011;19751;40.274;18.268;2022-12-08T10:58:24;24.42;;;5.78;;
33403;SDS011;19751;40.274;18.268;2022-12-08T11:01:02;27.38;;;5.30;;
33403;SDS011;19751;40.274;18.268;2022-12-08T11:06:35;30.58;;;7.95;;
33403;SDS011;19751;40.274;18.268;2022-12-08T11:09:04;21.45;;;4.35;;
33403;SDS011;19751;40.274;18.268;2022-12-08T11:11:37;24.83;;;5.53;;
33403;SDS011;19751;40.274;18.268;2022-12-08T11:14:12;18.88;;;5.40;;
33403;SDS011;19751;40.274;18.268;2022-12-08T11:16:43;20.88;;;5.35;;
33403;SDS011;19751;40.274;18.268;2022-12-08T11:19:13;20.55;;;4.57;;
33403;SDS011;19751;40.274;18.268;2022-12-08T11:21:40;24.33;;;3.33;;
33403;SDS011;19751;40.274;18.268;2022-12-08T11:26:38;28.55;;;4.57;;
33403;SDS011;19751;40.274;18.268;2022-12-08T11:29:09;23.00;;;5.05;;
33403;SDS011;19751;40.274;18.268;2022-12-08T11:31:42;25.25;;;4.78;;
33403;SDS011;19751;40.274;18.268;2022-12-08T11:34:18;26.13;;;4.55;;
33403;SDS011;19751;40.274;18.268;2022-12-08T11:36:50;27.10;;;4.50;;
33403;SDS011;19751;40.274;18.268;2022-12-08T11:39:18;19.15;;;5.32;;
33403;SDS011;19751;40.274;18.268;2022-12-08T11:41:45;22.70;;;5.90;;
33403;SDS011;19751;40.274;18.268;2022-12-08T11:49:39;32.20;;;5.68;;
33403;SDS011;19751;40.274;18.268;2022-12-08T11:52:20;27.52;;;8.85;;
33403;SDS011;19751;40.274;18.268;2022-12-08T11:54:56;23.85;;;8.15;;
33403;SDS011;19751;40.274;18.268;2022-12-08T11:57:29;15.60;;;5.68;;
33403;SDS011;19751;40.274;18.268;2022-12-08T11:59:55;28.10;;;5.07;;
33403;SDS011;19751;40.274;18.268;2022-12-08T12:13:03;19.50;;;4.00;;
33403;SDS011;19751;40.274;18.268;2022-12-08T12:23:55;24.92;;;6.88;;
33403;SDS011;19751;40.274;18.268;2022-12-08T12:26:26;16.17;;;4.75;;
33403;SDS011;19751;40.274;18.268;2022-12-08T12:31:29;19.48;;;4.22;;
33403;SDS011;19751;40.274;18.268;2022-12-08T12:39:26;27.88;;;7.63;;
33403;SDS011;19751;40.274;18.268;2022-12-08T12:41:55;27.83;;;6.47;;
33403;SDS011;19751;40.274;18.268;2022-12-08T12:46:54;43.53;;;16.40;;
33403;SDS011;19751;40.274;18.268;2022-12-08T12:49:48;59.30;;;31.52;;
33403;SDS011;19751;40.274;18.268;2022-12-08T13:02:31;28.50;;;10.13;;
33403;SDS011;19751;40.274;18.268;2022-12-08T13:05:10;33.38;;;11.65;;
33403;SDS011;19751;40.274;18.268;2022-12-08T13:15:46;36.05;;;5.88;;
33403;SDS011;19751;40.274;18.268;2022-12-08T13:18:25;20.00;;;5.15;;
33403;SDS011;19751;40.274;18.268;2022-12-08T13:21:10;24.63;;;6.75;;
33403;SDS011;19751;40.274;18.268;2022-12-08T13:39:27;32.28;;;8.63;;
33403;SDS011;19751;40.274;18.268;2022-12-08T13:47:39;29.10;;;7.90;;
33403;SDS011;19751;40.274;18.268;2022-12-08T13:58:14;34.10;;;13.05;;
33403;SDS011;19751;40.274;18.268;2022-12-08T14:00:59;34.55;;;10.13;;
33403;SDS011;19751;40.274;18.268;2022-12-08T14:03:51;50.20;;;29.50;;
33403;SDS011;19751;40.274;18.268;2022-12-08T14:06:37;119.72;;;71.00;;
33403;SDS011;19751;40.274;18.268;2022-12-08T14:09:09;48.55;;;17.45;;
33403;SDS011;19751;40.274;18.268;2022-12-08T14:11:40;25.77;;;12.27;;
33403;SDS011;19751;40.274;18.268;2022-12-08T14:16:41;18.90;;;7.90;;
33403;SDS011;19751;40.274;18.268;2022-12-08T14:19:17;20.23;;;6.90;;
33403;SDS011;19751;40.274;18.268;2022-12-08T14:21:46;22.48;;;7.45;;
33403;SDS011;19751;40.274;18.268;2022-12-08T14:24:17;23.17;;;6.88;;
33403;SDS011;19751;40.274;18.268;2022-12-08T14:26:44;28.48;;;10.45;;
33403;SDS011;19751;40.274;18.268;2022-12-08T14:29:12;39.05;;;9.85;;
33403;SDS011;19751;40.274;18.268;2022-12-08T14:32:03;36.83;;;18.75;;
33403;SDS011;19751;40.274;18.268;2022-12-08T14:34:33;45.15;;;21.33;;
33403;SDS011;19751;40.274;18.268;2022-12-08T14:39:30;29.02;;;11.88;;
33403;SDS011;19751;40.274;18.268;2022-12-08T14:41:59;25.02;;;8.85;;
33403;SDS011;19751;40.274;18.268;2022-12-08T14:44:25;28.77;;;7.30;;
33403;SDS011;19751;40.274;18.268;2022-12-08T14:47:06;35.28;;;10.63;;
33403;SDS011;19751;40.274;18.268;2022-12-08T14:49:34;42.47;;;11.23;;
33403;SDS011;19751;40.274;18.268;2022-12-08T14:52:07;29.83;;;8.60;;
33403;SDS011;19751;40.274;18.268;2022-12-08T14:54:35;51.40;;;12.68;;
33403;SDS011;19751;40.274;18.268;2022-12-08T14:57:01;32.90;;;13.18;;
33403;SDS011;19751;40.274;18.268;2022-12-08T14:59:45;37.22;;;14.35;;
33403;SDS011;19751;40.274;18.268;2022-12-08T15:04:47;48.53;;;14.25;;
33403;SDS011;19751;40.274;18.268;2022-12-08T15:07:20;43.50;;;14.20;;
33403;SDS011;19751;40.274;18.268;2022-12-08T15:09:49;43.55;;;18.85;;
33403;SDS011;19751;40.274;18.268;2022-12-08T15:13:01;50.70;;;21.00;;
33403;SDS011;19751;40.274;18.268;2022-12-08T15:18:19;41.85;;;12.05;;
33403;SDS011;19751;40.274;18.268;2022-12-08T15:20:53;32.95;;;10.27;;
33403;SDS011;19751;40.274;18.268;2022-12-08T15:25:56;44.55;;;19.67;;
33403;SDS011;19751;40.274;18.268;2022-12-08T15:28:24;31.25;;;16.58;;
33403;SDS011;19751;40.274;18.268;2022-12-08T15:30:51;30.08;;;15.93;;
33403;SDS011;19751;40.274;18.268;2022-12-08T15:33:18;46.03;;;13.52;;
33403;SDS011;19751;40.274;18.268;2022-12-08T15:35:44;32.25;;;12.65;;
33403;SDS011;19751;40.274;18.268;2022-12-08T15:38:18;23.67;;;11.25;;
33403;SDS011;19751;40.274;18.268;2022-12-08T15:40:47;32.65;;;11.65;;
33403;SDS011;19751;40.274;18.268;2022-12-08T15:43:13;34.90;;;14.23;;
33403;SDS011;19751;40.274;18.268;2022-12-08T15:45:38;28.38;;;10.98;;
33403;SDS011;19751;40.274;18.268;2022-12-08T15:48:04;30.58;;;10.65;;
33403;SDS011;19751;40.274;18.268;2022-12-08T15:50:30;32.83;;;11.40;;
33403;SDS011;19751;40.274;18.268;2022-12-08T15:52:55;26.83;;;10.70;;
33403;SDS011;19751;40.274;18.268;2022-12-08T15:55:21;18.13;;;9.43;;
33403;SDS011;19751;40.274;18.268;2022-12-08T15:57:50;43.33;;;12.63;;
33403;SDS011;19751;40.274;18.268;2022-12-08T16:02:47;27.10;;;10.63;;
33403;SDS011;19751;40.274;18.268;2022-12-08T16:05:13;26.65;;;10.57;;
33403;SDS011;19751;40.274;18.268;2022-12-08T16:07:39;31.77;;;14.23;;
33403;SDS011;19751;40.274;18.268;2022-12-08T16:10:05;35.35;;;11.30;;
33403;SDS011;19751;40.274;18.268;2022-12-08T16:12:31;42.13;;;13.45;;
33403;SDS011;19751;40.274;18.268;2022-12-08T16:15:15;39.13;;;14.43;;
33403;SDS011;19751;40.274;18.268;2022-12-08T16:17:41;49.80;;;15.95;;
33403;SDS011;19751;40.274;18.268;2022-12-08T16:20:10;40.35;;;15.18;;
33403;SDS011;19751;40.274;18.268;2022-12-08T16:22:38;42.95;;;13.95;;
33403;SDS011;19751;40.274;18.268;2022-12-08T16:25:03;39.88;;;10.65;;
33403;SDS011;19751;40.274;18.268;2022-12-08T16:27:30;29.42;;;10.90;;
33403;SDS011;19751;40.274;18.268;2022-12-08T16:29:59;40.13;;;12.23;;
33403;SDS011;19751;40.274;18.268;2022-12-08T16:32:25;38.22;;;16.38;;
33403;SDS011;19751;40.274;18.268;2022-12-08T16:34:51;42.13;;;16.33;;
33403;SDS011;19751;40.274;18.268;2022-12-08T16:37:18;39.65;;;16.27;;
33403;SDS011;19751;40.274;18.268;2022-12-08T16:39:46;45.65;;;17.25;;
33403;SDS011;19751;40.274;18.268;2022-12-08T16:42:15;41.67;;;14.18;;
33403;SDS011;19751;40.274;18.268;2022-12-08T16:45:06;32.13;;;16.20;;
33403;SDS011;19751;40.274;18.268;2022-12-08T16:47:36;39.03;;;14.57;;
33403;SDS011;19751;40.274;18.268;2022-12-08T16:50:12;39.63;;;13.20;;
33403;SDS011;19751;40.274;18.268;2022-12-08T16:52:47;49.03;;;16.25;;
33403;SDS011;19751;40.274;18.268;2022-12-08T16:55:17;46.45;;;16.08;;
33403;SDS011;19751;40.274;18.268;2022-12-08T16:57:44;45.50;;;19.55;;